Time;durP1;ratioP1;P1;durP2;ratioP2;P2;SDS_P1;SDS_P2;PMS_P1;PMS_P2;Temp;Humidity;BMP_temperature;BMP_pressure;BME280_temperature;BME280_humidity;BME280_pressure;Samples;Min_cycle;Max_cycle;Signal;HPM_P1;HPM_P2
2023/04/10 00:01:10;;;;;;;;;;;;;;;17.37;45.42;101303.09;7250269;19;153663;-56
2023/04/10 00:03:37;;;;;;;;;;;;;;;17.39;45.17;101293.34;7250479;19;153743;-56
2023/04/10 00:06:06;;;;;;;;;;;;;;;17.38;45.44;101288.03;7245675;19;153197;-56
2023/04/10 00:08:33;;;;;;;;;;;;;;;17.40;45.39;101283.00;7251719;19;153051;-56
2023/04/10 00:11:00;;;;;;;;;;;;;;;17.40;45.03;101283.00;7253263;19;153321;-56
2023/04/10 00:13:27;;;;;;;;;;;;;;;17.39;45.16;101278.53;7250936;19;153182;-56
2023/04/10 00:15:54;;;;;;;;;;;;;;;17.39;45.15;101267.34;7254017;19;155399;-56
2023/04/10 00:18:21;;;;;;;;;;;;;;;17.39;45.02;101270.16;7253825;19;152639;-59
2023/04/10 00:20:48;;;;;;;;;;;;;;;17.40;45.27;101266.25;7257357;19;153801;-56
2023/04/10 00:23:14;;;;;;;;;;;;;;;17.40;45.56;101257.88;7253898;19;154706;-56
2023/04/10 00:25:41;;;;;;;;;;;;;;;17.39;45.25;101257.03;7254841;19;153337;-55
2023/04/10 00:28:08;;;;;;;;;;;;;;;17.38;45.21;101255.34;7256717;19;154278;-55
2023/04/10 00:30:35;;;;;;;;;;;;;;;17.41;45.15;101257.56;7254240;19;153130;-55
2023/04/10 00:33:02;;;;;;;;;;;;;;;17.43;45.45;101257.28;7258369;19;153524;-55
2023/04/10 00:35:29;;;;;;;;;;;;;;;17.42;45.31;101258.41;7258137;19;154503;-55
2023/04/10 00:37:56;;;;;;;;;;;;;;;17.42;45.18;101269.59;7265528;19;153826;-56
2023/04/10 00:40:23;;;;;;;;;;;;;;;17.42;45.65;101266.78;7257671;19;153677;-55
2023/04/10 00:42:50;;;;;;;;;;;;;;;17.42;45.40;101264.00;7251345;19;153275;-56
2023/04/10 00:45:18;;;;;;;;;;;;;;;17.41;45.61;101259.53;7254036;19;153477;-56
2023/04/10 00:47:45;;;;;;;;;;;;;;;17.41;45.56;101249.19;7252553;19;153910;-56
2023/04/10 00:50:12;;;;;;;;;;;;;;;17.44;45.27;101250.59;7253872;19;153504;-56
2023/04/10 00:52:39;;;;;;;;;;;;;;;17.42;45.33;101248.06;7256617;19;153392;-55
2023/04/10 00:55:06;;;;;;;;;;;;;;;17.44;45.16;101242.22;7255600;19;152897;-56
2023/04/10 00:57:33;;;;;;;;;;;;;;;17.43;45.41;101234.94;7255058;19;153768;-55
2023/04/10 01:00:00;;;;;;;;;;;;;;;17.43;45.54;101223.78;7264872;19;154115;-56
2023/04/10 01:02:27;;;;;;;;;;;;;;;17.43;45.31;101224.63;7256289;19;153392;-55
2023/04/10 01:04:55;;;;;;;;;;;;;;;17.43;45.71;101219.03;7252835;19;153803;-55
2023/04/10 01:07:23;;;;;;;;;;;;;;;17.40;45.73;101208.41;7253217;19;153916;-55
2023/04/10 01:09:56;;;;;;;;;;;;;;;17.43;45.74;101215.41;7256483;19;153924;-55
2023/04/10 01:12:26;;;;;;;;;;;;;;;17.43;45.55;101213.44;7255800;19;152894;-56
2023/04/10 01:14:56;;;;;;;;;;;;;;;17.41;45.45;101207.28;7254358;19;153078;-55
2023/04/10 01:17:26;;;;;;;;;;;;;;;17.39;45.51;101201.16;7253373;19;154230;-56
2023/04/10 01:19:59;;;;;;;;;;;;;;;17.43;45.46;101201.44;7261707;19;154584;-56
2023/04/10 01:22:33;;;;;;;;;;;;;;;17.41;45.53;101203.66;7254342;19;152752;-55
2023/04/10 01:25:07;;;;;;;;;;;;;;;17.40;45.62;101204.81;7254706;19;153099;-56
2023/04/10 01:27:42;;;;;;;;;;;;;;;17.42;45.73;101202.56;7251991;19;154969;-56
2023/04/10 01:30:11;;;;;;;;;;;;;;;17.40;45.54;101193.63;7253225;19;156356;-56
2023/04/10 01:32:39;;;;;;;;;;;;;;;17.40;45.95;101197.22;7251255;19;152677;-56
2023/04/10 01:35:07;;;;;;;;;;;;;;;17.44;45.95;101177.97;7254060;19;153620;-56
2023/04/10 01:37:39;;;;;;;;;;;;;;;17.43;45.53;101185.53;7253014;19;153582;-56
2023/04/10 01:40:08;;;;;;;;;;;;;;;17.41;45.85;101184.09;7256392;19;152323;-56
2023/04/10 01:42:38;;;;;;;;;;;;;;;17.42;46.03;101192.22;7259711;19;154825;-56
2023/04/10 01:45:07;;;;;;;;;;;;;;;17.41;45.61;101193.31;7253124;19;152673;-56
2023/04/10 01:47:34;;;;;;;;;;;;;;;17.41;45.75;101182.16;7250806;19;153816;-56
2023/04/10 01:50:02;;;;;;;;;;;;;;;17.42;46.00;101177.41;7255567;19;153829;-55
2023/04/10 01:52:30;;;;;;;;;;;;;;;17.43;45.68;101184.69;7253135;19;153935;-56
2023/04/10 01:54:57;;;;;;;;;;;;;;;17.46;45.78;101184.09;7256853;19;153680;-55
2023/04/10 01:57:24;;;;;;;;;;;;;;;17.44;45.91;101172.41;7252032;19;153584;-56
2023/04/10 01:59:51;;;;;;;;;;;;;;;17.43;46.06;101162.34;7253554;19;153426;-56
2023/04/10 02:02:18;;;;;;;;;;;;;;;17.42;45.93;101167.09;7253843;19;153696;-56
2023/04/10 02:04:50;;;;;;;;;;;;;;;17.41;46.04;101157.03;7259143;19;154734;-56
2023/04/10 02:07:22;;;;;;;;;;;;;;;17.45;45.76;101158.13;7252988;19;153662;-56
2023/04/10 02:09:56;;;;;;;;;;;;;;;17.43;45.87;101154.78;7254874;19;154904;-56
2023/04/10 02:12:27;;;;;;;;;;;;;;;17.42;46.20;101164.28;7255455;19;153459;-56
2023/04/10 02:14:55;;;;;;;;;;;;;;;17.42;46.10;101164.28;7254688;19;153238;-56
2023/04/10 02:17:25;;;;;;;;;;;;;;;17.42;46.11;101157.84;7246780;19;153979;-56
2023/04/10 02:19:52;;;;;;;;;;;;;;;17.43;46.33;101162.34;7256341;19;153430;-55
2023/04/10 02:22:20;;;;;;;;;;;;;;;17.44;45.94;101152.84;7251059;19;154293;-55
2023/04/10 02:24:48;;;;;;;;;;;;;;;17.43;46.43;101149.22;7252161;19;155117;-55
2023/04/10 02:27:15;;;;;;;;;;;;;;;17.44;46.27;101148.09;7260201;19;154666;-55
2023/04/10 02:29:42;;;;;;;;;;;;;;;17.42;46.43;101146.69;7253097;19;154584;-55
2023/04/10 02:32:09;;;;;;;;;;;;;;;17.40;46.48;101144.16;7252105;19;152997;-55
2023/04/10 02:34:36;;;;;;;;;;;;;;;17.41;46.23;101145.00;7254364;19;152687;-56
2023/04/10 02:37:03;;;;;;;;;;;;;;;17.43;46.34;101143.63;7250883;19;154532;-56
2023/04/10 02:39:30;;;;;;;;;;;;;;;17.44;46.43;101136.94;7250264;19;152648;-56
2023/04/10 02:41:57;;;;;;;;;;;;;;;17.44;46.66;101130.50;7254472;19;154972;-56
2023/04/10 02:44:24;;;;;;;;;;;;;;;17.44;46.57;101131.34;7250794;19;156951;-56
2023/04/10 02:46:51;;;;;;;;;;;;;;;17.42;46.55;101122.38;7247394;19;152893;-56
2023/04/10 02:49:18;;;;;;;;;;;;;;;17.45;46.34;101124.59;7257399;19;154211;-55
2023/04/10 02:51:45;;;;;;;;;;;;;;;17.45;46.72;101120.97;7255536;19;154027;-55
2023/04/10 02:54:12;;;;;;;;;;;;;;;17.41;46.82;101117.06;7253839;19;153875;-56
2023/04/10 02:56:39;;;;;;;;;;;;;;;17.44;46.61;101113.75;7249395;19;155058;-57
2023/04/10 02:59:06;;;;;;;;;;;;;;;17.43;46.79;101112.91;7254963;19;152347;-57
2023/04/10 03:01:33;;;;;;;;;;;;;;;17.45;46.69;101126.56;7254794;19;153128;-57
2023/04/10 03:04:02;;;;;;;;;;;;;;;17.44;47.01;101114.59;7249734;19;155217;-57
2023/04/10 03:06:30;;;;;;;;;;;;;;;17.44;47.04;101113.75;7253317;19;153240;-57
2023/04/10 03:08:57;;;;;;;;;;;;;;;17.42;46.97;101116.81;7252057;19;153195;-57
2023/04/10 03:11:24;;;;;;;;;;;;;;;17.43;47.25;101109.28;7259245;19;155036;-57
2023/04/10 03:13:51;;;;;;;;;;;;;;;17.44;47.10;101113.75;7252742;19;155150;-57
2023/04/10 03:16:18;;;;;;;;;;;;;;;17.44;47.17;101108.16;7249038;19;154405;-56
2023/04/10 03:18:45;;;;;;;;;;;;;;;17.43;47.12;101110.09;7249907;19;153804;-57
2023/04/10 03:21:12;;;;;;;;;;;;;;;17.42;47.29;101105.63;7252244;19;153974;-57
2023/04/10 03:23:39;;;;;;;;;;;;;;;17.42;47.44;101113.16;7250981;19;153470;-56
2023/04/10 03:26:06;;;;;;;;;;;;;;;17.41;47.29;101101.16;7250676;19;154558;-57
2023/04/10 03:28:35;;;;;;;;;;;;;;;17.42;47.20;101097.25;7248709;19;153531;-56
2023/04/10 03:31:02;;;;;;;;;;;;;;;17.42;47.29;101097.25;7259623;19;154881;-56
2023/04/10 03:33:29;;;;;;;;;;;;;;;17.43;47.19;101086.91;7248603;19;153397;-56
2023/04/10 03:35:56;;;;;;;;;;;;;;;17.41;47.38;101090.00;7249860;19;155216;-56
2023/04/10 03:38:24;;;;;;;;;;;;;;;17.42;47.67;101088.03;7251395;19;153100;-56
2023/04/10 03:40:51;;;;;;;;;;;;;;;17.44;47.63;101089.44;7253169;19;155352;-56
2023/04/10 03:43:18;;;;;;;;;;;;;;;17.43;48.00;101084.97;7250397;19;153788;-57
2023/04/10 03:45:46;;;;;;;;;;;;;;;17.44;47.75;101074.63;7244729;19;153232;-56
2023/04/10 03:48:12;;;;;;;;;;;;;;;17.42;47.66;101085.25;7248274;19;153822;-56
2023/04/10 03:50:39;;;;;;;;;;;;;;;17.42;47.97;101074.91;7254044;19;154123;-56
2023/04/10 03:53:06;;;;;;;;;;;;;;;17.43;47.94;101067.38;7264991;19;153137;-56
2023/04/10 03:55:33;;;;;;;;;;;;;;;17.41;47.69;101058.44;7256522;19;154164;-56
2023/04/10 03:58:00;;;;;;;;;;;;;;;17.42;47.97;101052.56;7259698;19;152378;-56
2023/04/10 04:00:27;;;;;;;;;;;;;;;17.41;48.14;101045.31;7262151;19;155380;-56
2023/04/10 04:02:55;;;;;;;;;;;;;;;17.44;47.92;101046.72;7254641;19;154291;-56
2023/04/10 04:05:22;;;;;;;;;;;;;;;17.42;48.17;101041.41;7254845;19;154068;-56
2023/04/10 04:07:49;;;;;;;;;;;;;;;17.43;48.02;101040.28;7257486;19;154169;-56
2023/04/10 04:10:16;;;;;;;;;;;;;;;17.41;48.27;101036.09;7259588;19;153849;-56
2023/04/10 04:12:43;;;;;;;;;;;;;;;17.39;48.01;101036.38;7258895;19;153678;-56
2023/04/10 04:15:10;;;;;;;;;;;;;;;17.41;48.30;101031.34;7267433;19;154678;-56
2023/04/10 04:17:37;;;;;;;;;;;;;;;17.42;48.00;101037.75;7254312;19;153133;-56
2023/04/10 04:20:04;;;;;;;;;;;;;;;17.41;48.21;101039.72;7259648;19;154702;-56
2023/04/10 04:22:31;;;;;;;;;;;;;;;17.42;48.40;101037.75;7260118;19;153679;-56
2023/04/10 04:24:58;;;;;;;;;;;;;;;17.41;48.42;101036.09;7257408;19;154797;-56
2023/04/10 04:27:25;;;;;;;;;;;;;;;17.40;48.18;101031.66;7256860;19;153249;-54
2023/04/10 04:29:52;;;;;;;;;;;;;;;17.42;48.50;101029.38;7257618;19;153479;-56
2023/04/10 04:32:19;;;;;;;;;;;;;;;17.38;48.63;101031.91;7258037;19;153129;-59
2023/04/10 04:34:47;;;;;;;;;;;;;;;17.40;48.31;101031.66;7253023;19;153532;-56
2023/04/10 04:37:14;;;;;;;;;;;;;;;17.42;48.69;101032.19;7263874;19;155317;-56
2023/04/10 04:39:41;;;;;;;;;;;;;;;17.35;48.80;101018.53;7259259;19;153278;-56
2023/04/10 04:42:08;;;;;;;;;;;;;;;17.40;48.79;101014.88;7256602;19;154454;-56
2023/04/10 04:44:35;;;;;;;;;;;;;;;17.34;49.03;101014.91;7256873;19;152995;-56
2023/04/10 04:47:02;;;;;;;;;;;;;;;17.38;48.63;101017.13;7250429;19;154402;-56
2023/04/10 04:49:29;;;;;;;;;;;;;;;17.39;48.93;101004.84;7253335;19;154922;-56
2023/04/10 04:51:56;;;;;;;;;;;;;;;17.37;48.66;101007.06;7255460;19;153241;-56
2023/04/10 04:54:23;;;;;;;;;;;;;;;17.35;48.98;101001.78;7255388;19;153992;-56
2023/04/10 04:56:50;;;;;;;;;;;;;;;17.35;49.04;100999.00;7252272;19;154911;-55
2023/04/10 04:59:17;;;;;;;;;;;;;;;17.41;48.90;100997.00;7265389;19;154708;-55
2023/04/10 05:01:44;;;;;;;;;;;;;;;17.39;48.97;100994.50;7253334;19;154432;-55
2023/04/10 05:04:11;;;;;;;;;;;;;;;17.37;49.26;100998.69;7257127;19;153232;-55
2023/04/10 05:06:38;;;;;;;;;;;;;;;17.39;49.20;100993.66;7253840;19;153454;-56
2023/04/10 05:09:05;;;;;;;;;;;;;;;17.33;49.36;100990.88;7257755;19;154805;-56
2023/04/10 05:11:32;;;;;;;;;;;;;;;17.33;49.52;100987.25;7256435;19;154132;-56
2023/04/10 05:13:59;;;;;;;;;;;;;;;17.35;49.22;100994.22;7255940;19;152780;-56
2023/04/10 05:16:26;;;;;;;;;;;;;;;17.34;49.25;101000.09;7248332;19;153717;-56
2023/04/10 05:18:53;;;;;;;;;;;;;;;17.35;49.26;100980.25;7257993;19;154617;-55
2023/04/10 05:21:21;;;;;;;;;;;;;;;17.37;49.26;100984.72;7264343;19;153123;-55
2023/04/10 05:23:48;;;;;;;;;;;;;;;17.38;49.54;100983.59;7254182;19;154137;-55
2023/04/10 05:26:15;;;;;;;;;;;;;;;17.32;49.90;100964.06;7254502;19;152885;-55
2023/04/10 05:28:42;;;;;;;;;;;;;;;17.33;49.45;100967.72;7254173;19;153454;-55
2023/04/10 05:31:09;;;;;;;;;;;;;;;17.31;49.76;100955.97;7256950;19;152711;-55
2023/04/10 05:33:36;;;;;;;;;;;;;;;17.32;49.83;100961.28;7256598;19;152745;-55
2023/04/10 05:36:03;;;;;;;;;;;;;;;17.33;49.56;100949.00;7247323;19;154036;-55
2023/04/10 05:38:30;;;;;;;;;;;;;;;17.32;49.74;100940.91;7252990;19;153917;-56
2023/04/10 05:40:57;;;;;;;;;;;;;;;17.31;49.88;100951.22;7261953;19;153579;-56
2023/04/10 05:43:24;;;;;;;;;;;;;;;17.31;49.68;100942.84;7258643;19;153148;-56
2023/04/10 05:45:51;;;;;;;;;;;;;;;17.30;49.73;100952.38;7253134;19;153277;-56
2023/04/10 05:48:18;;;;;;;;;;;;;;;17.33;49.61;100937.81;7247750;19;154099;-55
2023/04/10 05:50:45;;;;;;;;;;;;;;;17.32;49.74;100932.53;7257101;19;152824;-56
2023/04/10 05:53:13;;;;;;;;;;;;;;;17.32;50.15;100926.94;7252796;19;153835;-55
2023/04/10 05:55:40;;;;;;;;;;;;;;;17.31;49.96;100923.31;7250275;19;154146;-55
2023/04/10 05:58:07;;;;;;;;;;;;;;;17.29;50.33;100917.19;7255918;19;154079;-56
2023/04/10 06:00:34;;;;;;;;;;;;;;;17.34;50.06;100916.31;7255278;19;153583;-56
2023/04/10 06:03:02;;;;;;;;;;;;;;;17.34;49.70;100914.38;7259838;19;153172;-55
2023/04/10 06:05:29;;;;;;;;;;;;;;;17.31;49.97;100914.09;7252355;19;154271;-55
2023/04/10 06:07:56;;;;;;;;;;;;;;;17.31;50.18;100902.91;7253810;19;154136;-56
2023/04/10 06:10:24;;;;;;;;;;;;;;;17.28;50.29;100903.50;7253843;19;152654;-55
2023/04/10 06:12:51;;;;;;;;;;;;;;;17.30;50.25;100895.69;7255286;19;154632;-56
2023/04/10 06:15:18;;;;;;;;;;;;;;;17.32;50.18;100888.69;7250300;19;154809;-56
2023/04/10 06:17:45;;;;;;;;;;;;;;;17.28;50.29;100893.19;7251266;19;152621;-56
2023/04/10 06:20:12;;;;;;;;;;;;;;;17.33;50.27;100892.31;7253636;19;154741;-55
2023/04/10 06:22:39;;;;;;;;;;;;;;;17.30;50.34;100885.38;7256763;19;155708;-55
2023/04/10 06:25:07;;;;;;;;;;;;;;;17.31;50.08;100872.22;7260453;19;152872;-55
2023/04/10 06:27:35;;;;;;;;;;;;;;;17.29;50.49;100872.50;7249469;19;154306;-55
2023/04/10 06:30:02;;;;;;;;;;;;;;;17.31;50.07;100873.03;7256981;19;153055;-55
2023/04/10 06:32:29;;;;;;;;;;;;;;;17.31;50.25;100866.63;7255273;19;152744;-55
2023/04/10 06:34:56;;;;;;;;;;;;;;;17.32;50.38;100866.34;7252677;19;154670;-56
2023/04/10 06:37:26;;;;;;;;;;;;;;;17.29;50.43;100874.47;7251521;19;152690;-57
2023/04/10 06:40:00;;;;;;;;;;;;;;;17.27;50.50;100874.75;7252211;19;153443;-57
2023/04/10 06:42:27;;;;;;;;;;;;;;;17.28;50.68;100883.97;7250883;19;153152;-57
2023/04/10 06:44:54;;;;;;;;;;;;;;;17.26;50.98;100875.88;7253266;19;154148;-56
2023/04/10 06:47:21;;;;;;;;;;;;;;;17.28;51.14;100870.00;7255365;19;153570;-56
2023/04/10 06:49:48;;;;;;;;;;;;;;;17.27;50.66;100871.94;7251247;19;154068;-57
2023/04/10 06:52:16;;;;;;;;;;;;;;;17.26;50.88;100866.69;7253527;19;154309;-55
2023/04/10 06:54:43;;;;;;;;;;;;;;;17.27;51.22;100871.13;7250132;19;156299;-56
2023/04/10 06:57:10;;;;;;;;;;;;;;;17.24;51.35;100861.38;7249218;19;154055;-56
2023/04/10 06:59:37;;;;;;;;;;;;;;;17.27;51.26;100868.31;7253506;19;153522;-56
2023/04/10 07:02:04;;;;;;;;;;;;;;;17.27;51.32;100859.94;7251377;19;153842;-56
2023/04/10 07:04:31;;;;;;;;;;;;;;;17.26;50.98;100859.09;7249381;19;153893;-56
2023/04/10 07:06:58;;;;;;;;;;;;;;;17.28;51.20;100853.25;7248697;19;153784;-56
2023/04/10 07:09:25;;;;;;;;;;;;;;;17.27;51.08;100858.00;7258967;19;154230;-57
2023/04/10 07:11:52;;;;;;;;;;;;;;;17.28;51.08;100853.25;7253052;19;153075;-56
2023/04/10 07:14:19;;;;;;;;;;;;;;;17.25;51.07;100840.72;7251101;19;154721;-56
2023/04/10 07:16:47;;;;;;;;;;;;;;;17.27;51.44;100846.81;7249627;19;153747;-56
2023/04/10 07:19:14;;;;;;;;;;;;;;;17.25;51.51;100835.13;7250496;19;154332;-56
2023/04/10 07:21:41;;;;;;;;;;;;;;;17.24;51.47;100836.25;7251573;19;154353;-56
2023/04/10 07:24:08;;;;;;;;;;;;;;;17.26;51.40;100844.34;7250095;19;152010;-56
2023/04/10 07:26:35;;;;;;;;;;;;;;;17.26;51.35;100838.75;7254324;19;153174;-55
2023/04/10 07:29:02;;;;;;;;;;;;;;;17.24;51.52;100829.81;7256874;19;154079;-56
2023/04/10 07:31:29;;;;;;;;;;;;;;;17.25;51.59;100829.53;7267053;19;153279;-56
2023/04/10 07:33:56;;;;;;;;;;;;;;;17.24;51.66;100827.03;7257502;19;154604;-56
2023/04/10 07:36:23;;;;;;;;;;;;;;;17.23;51.47;100816.97;7254305;19;153372;-56
2023/04/10 07:38:50;;;;;;;;;;;;;;;17.25;51.51;100809.16;7258389;19;153514;-56
2023/04/10 07:41:17;;;;;;;;;;;;;;;17.23;51.40;100805.81;7256453;19;154929;-56
2023/04/10 07:43:45;;;;;;;;;;;;;;;17.25;51.42;100806.38;7259176;19;154174;-56
2023/04/10 07:46:12;;;;;;;;;;;;;;;17.23;51.40;100806.66;7256362;19;152740;-56
2023/04/10 07:48:39;;;;;;;;;;;;;;;17.25;51.33;100798.84;7252995;19;153651;-57
2023/04/10 07:51:08;;;;;;;;;;;;;;;17.24;51.69;100790.75;7262117;19;154287;-56
2023/04/10 07:53:35;;;;;;;;;;;;;;;17.23;51.79;100789.06;7257324;19;154385;-56
2023/04/10 07:56:03;;;;;;;;;;;;;;;17.20;52.11;100792.44;7256455;19;152813;-56
2023/04/10 07:58:30;;;;;;;;;;;;;;;17.21;51.69;100769.84;7261330;19;152703;-56
2023/04/10 08:00:57;;;;;;;;;;;;;;;17.23;51.77;100769.53;7253929;19;152757;-56
2023/04/10 08:03:25;;;;;;;;;;;;;;;17.24;51.65;100763.66;7257634;19;153367;-56
2023/04/10 08:05:52;;;;;;;;;;;;;;;17.21;51.91;100763.41;7256921;19;153718;-56
2023/04/10 08:08:19;;;;;;;;;;;;;;;17.21;51.91;100757.81;7257943;19;154005;-56
2023/04/10 08:10:46;;;;;;;;;;;;;;;17.21;51.88;100749.44;7258017;19;154265;-56
2023/04/10 08:13:13;;;;;;;;;;;;;;;17.19;51.94;100737.72;7264868;19;153521;-56
2023/04/10 08:15:40;;;;;;;;;;;;;;;17.19;52.20;100748.91;7253308;19;153582;-56
2023/04/10 08:18:07;;;;;;;;;;;;;;;17.20;51.92;100743.03;7257172;19;153571;-56
2023/04/10 08:20:35;;;;;;;;;;;;;;;17.19;52.24;100732.16;7257551;19;154161;-56
2023/04/10 08:23:03;;;;;;;;;;;;;;;17.18;52.01;100733.25;7258044;19;153621;-56
2023/04/10 08:25:46;;;;;;;;;;;;;;;17.19;52.00;100716.22;7259209;19;153910;-56
2023/04/10 08:28:13;;;;;;;;;;;;;;;17.19;52.03;100716.22;7255845;19;153441;-56
2023/04/10 08:30:40;;;;;;;;;;;;;;;17.18;52.28;100714.56;7258265;19;152797;-56
2023/04/10 08:33:07;;;;;;;;;;;;;;;17.20;52.08;100717.06;7259131;19;154193;-56
2023/04/10 08:35:34;;;;;;;;;;;;;;;17.18;52.38;100720.13;7262261;19;154266;-56
2023/04/10 08:38:01;;;;;;;;;;;;;;;17.18;52.12;100717.34;7255717;19;154191;-56
2023/04/10 08:40:39;;;;;;;;;;;;;;;17.18;52.43;100703.38;7256135;19;154204;-56
2023/04/10 08:43:06;;;;;;;;;;;;;;;17.18;52.84;100710.94;7255820;19;152796;-56
2023/04/10 08:45:33;;;;;;;;;;;;;;;17.19;52.49;100699.47;7255038;19;153459;-56
2023/04/10 08:48:01;;;;;;;;;;;;;;;17.19;52.68;100702.28;7250520;19;154058;-56
2023/04/10 08:50:30;;;;;;;;;;;;;;;17.18;52.92;100688.59;7254982;19;152833;-56
2023/04/10 08:52:59;;;;;;;;;;;;;;;17.19;52.74;100681.91;7254375;19;154289;-56
2023/04/10 08:55:26;;;;;;;;;;;;;;;17.18;52.69;100681.06;7250954;19;153948;-55
2023/04/10 08:57:53;;;;;;;;;;;;;;;17.16;53.03;100672.16;7264162;19;153066;-56
2023/04/10 09:00:27;;;;;;;;;;;;;;;17.17;52.82;100668.22;7257988;19;153452;-56
2023/04/10 09:02:56;;;;;;;;;;;;;;;17.18;52.75;100661.50;7254217;19;153416;-56
2023/04/10 09:05:26;;;;;;;;;;;;;;;17.19;53.09;100671.56;7252605;19;154167;-56
2023/04/10 09:07:53;;;;;;;;;;;;;;;17.19;52.89;100668.78;7254697;19;153637;-56
2023/04/10 09:10:20;;;;;;;;;;;;;;;17.16;53.14;100663.78;7254591;19;152358;-55
2023/04/10 09:12:47;;;;;;;;;;;;;;;17.15;53.15;100664.91;7260197;19;153644;-56
2023/04/10 09:15:15;;;;;;;;;;;;;;;17.14;53.08;100645.66;7253947;19;154456;-56
2023/04/10 09:17:45;;;;;;;;;;;;;;;17.16;53.40;100657.38;7252263;19;154486;-56
2023/04/10 09:20:16;;;;;;;;;;;;;;;17.14;53.21;100649.28;7262095;19;154326;-56
2023/04/10 09:22:42;;;;;;;;;;;;;;;17.14;53.72;100654.84;7258990;19;154806;-56
2023/04/10 09:25:26;;;;;;;;;;;;;;;17.14;53.73;100646.47;7252099;19;153632;-56
2023/04/10 09:27:57;;;;;;;;;;;;;;;17.16;53.71;100640.63;7250931;19;154711;-56
2023/04/10 09:30:32;;;;;;;;;;;;;;;17.14;53.40;100635.31;7256612;19;153819;-56
2023/04/10 09:32:59;;;;;;;;;;;;;;;17.15;53.43;100634.19;7253985;19;153472;-56
2023/04/10 09:35:32;;;;;;;;;;;;;;;17.14;53.73;100632.53;7251875;19;154385;-56
2023/04/10 09:37:59;;;;;;;;;;;;;;;17.13;53.63;100642.03;7255950;19;154684;-56
2023/04/10 09:40:26;;;;;;;;;;;;;;;17.14;53.67;100626.09;7253208;19;153121;-56
2023/04/10 09:42:54;;;;;;;;;;;;;;;17.15;53.63;100641.75;7262192;19;153070;-56
2023/04/10 09:45:21;;;;;;;;;;;;;;;17.13;53.62;100628.06;7253052;19;154000;-56
2023/04/10 09:47:52;;;;;;;;;;;;;;;17.15;54.03;100622.19;7248130;19;153783;-55
2023/04/10 09:50:32;;;;;;;;;;;;;;;17.13;53.97;100625.28;7254740;19;152583;-56
2023/04/10 09:53:05;;;;;;;;;;;;;;;17.12;54.38;100620.84;7251100;19;153403;-56
2023/04/10 09:55:33;;;;;;;;;;;;;;;17.10;54.51;100620.28;7252165;19;155002;-55
2023/04/10 09:58:02;;;;;;;;;;;;;;;17.12;54.31;100623.63;7250685;19;152631;-56
2023/04/10 10:00:29;;;;;;;;;;;;;;;17.13;54.45;100625.28;7253704;19;154226;-56
2023/04/10 10:02:58;;;;;;;;;;;;;;;17.12;54.24;100625.59;7259366;19;154684;-56
2023/04/10 10:05:29;;;;;;;;;;;;;;;17.13;54.23;100621.66;7251721;19;153085;-56
2023/04/10 10:07:56;;;;;;;;;;;;;;;17.12;54.33;100615.25;7253844;19;153881;-55
2023/04/10 10:10:24;;;;;;;;;;;;;;;17.14;54.18;100612.16;7254896;19;152914;-55
2023/04/10 10:12:56;;;;;;;;;;;;;;;17.14;54.47;100612.97;7258386;19;153657;-56
2023/04/10 10:15:26;;;;;;;;;;;;;;;17.13;54.23;100608.53;7251368;19;154324;-56
2023/04/10 10:18:01;;;;;;;;;;;;;;;17.15;54.70;100602.66;7251029;19;153480;-56
2023/04/10 10:20:30;;;;;;;;;;;;;;;17.14;54.86;100612.16;7253549;19;154100;-56
2023/04/10 10:23:01;;;;;;;;;;;;;;;17.14;55.11;100595.41;7252867;19;153469;-56
2023/04/10 10:25:29;;;;;;;;;;;;;;;17.13;54.90;100596.53;7259377;19;152809;-56
2023/04/10 10:27:59;;;;;;;;;;;;;;;17.14;54.70;100592.59;7250901;19;153926;-56
2023/04/10 10:30:26;;;;;;;;;;;;;;;17.15;54.90;100585.91;7254835;19;153871;-56
2023/04/10 10:32:57;;;;;;;;;;;;;;;17.14;55.15;100578.66;7255780;19;154380;-55
2023/04/10 10:35:26;;;;;;;;;;;;;;;17.13;54.94;100571.41;7250295;19;154150;-56
2023/04/10 10:37:57;;;;;;;;;;;;;;;17.12;54.93;100548.25;7253050;19;153101;-56
2023/04/10 10:40:29;;;;;;;;;;;;;;;17.15;54.82;100547.66;7253643;19;152664;-56
2023/04/10 10:42:59;;;;;;;;;;;;;;;17.14;54.73;100550.75;7255601;19;153777;-55
2023/04/10 10:45:29;;;;;;;;;;;;;;;17.16;54.79;100560.50;7256036;19;153641;-55
2023/04/10 10:47:56;;;;;;;;;;;;;;;17.14;54.79;100551.56;7256823;19;155042;-55
2023/04/10 10:50:23;;;;;;;;;;;;;;;17.17;54.68;100553.75;7254321;19;154273;-56
2023/04/10 10:52:52;;;;;;;;;;;;;;;17.14;54.91;100554.38;7252904;19;152621;-56
2023/04/10 10:55:21;;;;;;;;;;;;;;;17.12;55.21;100545.47;7249200;19;156791;-56
2023/04/10 10:57:51;;;;;;;;;;;;;;;17.14;54.97;100540.41;7250916;19;152865;-55
2023/04/10 11:00:19;;;;;;;;;;;;;;;17.14;55.28;100547.94;7253330;19;154466;-56
2023/04/10 11:02:50;;;;;;;;;;;;;;;17.13;55.69;100532.31;7248653;19;153876;-56
2023/04/10 11:05:37;;;;;;;;;;;;;;;17.15;55.03;100536.50;7252343;19;152895;-55
2023/04/10 11:08:05;;;;;;;;;;;;;;;17.16;55.34;100520.59;7253350;19;153123;-55
2023/04/10 11:10:41;;;;;;;;;;;;;;;17.15;55.49;100525.34;7261138;19;154452;-56
2023/04/10 11:13:11;;;;;;;;;;;;;;;17.15;55.74;100522.53;7256729;19;154028;-56
2023/04/10 11:15:42;;;;;;;;;;;;;;;17.16;55.52;100524.22;7248669;19;154295;-56
2023/04/10 11:18:09;;;;;;;;;;;;;;;17.16;55.19;100521.41;7249087;19;153989;-56
2023/04/10 11:20:56;;;;;;;;;;;;;;;17.16;55.61;100523.38;7252774;19;153619;-56
2023/04/10 11:23:23;;;;;;;;;;;;;;;17.18;55.11;100527.53;7252163;19;153985;-55
2023/04/10 11:25:51;;;;;;;;;;;;;;;17.18;55.25;100526.69;7249089;19;152811;-56
2023/04/10 11:28:21;;;;;;;;;;;;;;;17.16;55.94;100513.03;7249911;19;152390;-56
2023/04/10 11:30:48;;;;;;;;;;;;;;;17.17;55.49;100520.25;7252174;19;155512;-56
2023/04/10 11:33:16;;;;;;;;;;;;;;;17.19;55.57;100523.59;7260055;19;154135;-56
2023/04/10 11:35:45;;;;;;;;;;;;;;;17.17;55.69;100539.81;7246320;19;153915;-56
2023/04/10 11:38:14;;;;;;;;;;;;;;;17.16;55.57;100535.38;7251095;19;153319;-56
2023/04/10 11:40:45;;;;;;;;;;;;;;;17.17;55.77;100536.22;7251510;19;153504;-56
2023/04/10 11:43:13;;;;;;;;;;;;;;;17.18;55.32;100518.31;7253975;19;154826;-56
2023/04/10 11:45:40;;;;;;;;;;;;;;;17.19;55.50;100514.41;7248312;19;153486;-56
2023/04/10 11:48:08;;;;;;;;;;;;;;;17.18;55.65;100519.16;7248191;19;152486;-56
2023/04/10 11:50:36;;;;;;;;;;;;;;;17.20;55.91;100502.13;7251348;19;154582;-56
2023/04/10 11:53:16;;;;;;;;;;;;;;;17.19;55.51;100500.44;7257067;19;153359;-55
2023/04/10 11:55:43;;;;;;;;;;;;;;;17.22;55.66;100513.78;7247041;19;154346;-56
2023/04/10 11:58:13;;;;;;;;;;;;;;;17.20;55.72;100497.38;7250555;19;153484;-56
2023/04/10 12:00:44;;;;;;;;;;;;;;;17.23;55.72;100491.19;7252102;19;153727;-55
2023/04/10 12:03:11;;;;;;;;;;;;;;;17.25;55.53;100493.69;7248898;19;153343;-56
2023/04/10 12:05:42;;;;;;;;;;;;;;;17.26;55.19;100478.59;7248526;19;153419;-56
2023/04/10 12:08:09;;;;;;;;;;;;;;;17.31;54.86;100490.50;7252722;19;152940;-56
2023/04/10 12:10:39;;;;;;;;;;;;;;;17.35;55.05;100480.41;7250421;19;153384;-56
2023/04/10 12:13:06;;;;;;;;;;;;;;;17.39;54.90;100483.47;7260085;19;153829;-56
2023/04/10 12:15:34;;;;;;;;;;;;;;;17.41;54.56;100469.19;7264549;19;153861;-56
2023/04/10 12:18:01;;;;;;;;;;;;;;;17.41;54.74;100481.19;7253697;19;153296;-56
2023/04/10 12:20:28;;;;;;;;;;;;;;;17.51;54.29;100477.44;7259628;19;154024;-56
2023/04/10 12:23:00;;;;;;;;;;;;;;;17.54;54.36;100471.22;7259740;19;153148;-56
2023/04/10 12:25:27;;;;;;;;;;;;;;;17.55;54.56;100478.47;7252680;19;153201;-56
2023/04/10 12:27:54;;;;;;;;;;;;;;;17.52;54.54;100473.50;7256470;19;153210;-56
2023/04/10 12:30:21;;;;;;;;;;;;;;;17.54;54.33;100468.44;7255633;19;154082;-55
2023/04/10 12:32:51;;;;;;;;;;;;;;;17.52;54.71;100470.72;7256833;19;154086;-56